Time;durP1;ratioP1;P1;durP2;ratioP2;P2;SDS_P1;SDS_P2;PMS_P1;PMS_P2;Temp;Humidity;BMP_temperature;BMP_pressure;BME280_temperature;BME280_humidity;BME280_pressure;Samples;Min_cycle;Max_cycle;Signal;HPM_P1;HPM_P2
2023/01/02 00:01:10;;;;;;;2.03;0.98;;;;;;;;;;6224535;23;20009;-75
2023/01/02 00:03:36;;;;;;;2.35;1.08;;;;;;;;;;6224702;23;20016;-75
2023/01/02 00:06:03;;;;;;;1.10;0.98;;;17.60;72.00;;;;;;6224429;23;20016;-75
2023/01/02 00:08:29;;;;;;;1.40;0.90;;;17.60;96.90;;;;;;6224580;23;19992;-75
2023/01/02 00:10:55;;;;;;;4.00;1.05;;;17.50;97.00;;;;;;6224916;23;20004;-75
2023/01/02 00:13:20;;;;;;;1.58;0.90;;;17.50;93.00;;;;;;6224517;23;20325;-75
2023/01/02 00:15:46;;;;;;;2.85;1.20;;;;;;;;;;6224537;23;20028;-74
2023/01/02 00:18:12;;;;;;;1.48;0.90;;;;;;;;;;6224485;23;20004;-74
2023/01/02 00:20:38;;;;;;;1.38;0.90;;;;;;;;;;6224363;23;20040;-74
2023/01/02 00:23:04;;;;;;;2.17;1.20;;;;;;;;;;6224252;23;20055;-74
2023/01/02 00:25:33;;;;;;;4.78;1.50;;;;;;;;;;6224386;23;19997;-74
2023/01/02 00:27:59;;;;;;;4.28;1.17;;;17.60;97.10;;;;;;6214590;23;20000;-74
2023/01/02 00:30:25;;;;;;;1.73;1.20;;;17.60;97.00;;;;;;6214131;23;20451;-74
2023/01/02 00:32:50;;;;;;;2.72;1.00;;;17.40;91.70;;;;;;6224330;23;20000;-73
2023/01/02 00:35:16;;;;;;;1.17;0.80;;;;;;;;;;6224431;23;20001;-75
2023/01/02 00:37:42;;;;;;;2.33;1.20;;;;;;;;;;6224447;23;20020;-75
2023/01/02 00:40:12;;;;;;;1.65;1.05;;;17.60;70.70;;;;;;6214500;23;20012;-75
2023/01/02 00:42:39;;;;;;;1.42;0.75;;;17.50;70.70;;;;;;6224351;23;19998;-75
2023/01/02 00:45:05;;;;;;;1.80;0.80;;;17.50;96.80;;;;;;6224127;23;20429;-75
2023/01/02 00:47:31;;;;;;;2.53;1.00;;;17.60;97.10;;;;;;6224380;23;20004;-75
2023/01/02 00:49:56;;;;;;;0.82;0.82;;;17.60;97.00;;;;;;6224230;23;19997;-75
2023/01/02 00:52:22;;;;;;;1.25;0.90;;;;;;;;;;6224332;23;20004;-74
2023/01/02 00:54:48;;;;;;;2.30;1.35;;;;;;;;;;6224320;23;20035;-74
2023/01/02 00:57:14;;;;;;;2.60;1.00;;;;;;;;;;6224156;23;20009;-74
2023/01/02 00:59:40;;;;;;;2.42;0.80;;;;;;;;;;6224195;23;20001;-73
2023/01/02 01:02:06;;;;;;;2.38;0.88;;;;;;;;;;6224139;23;20027;-74
2023/01/02 01:04:33;;;;;;;1.42;1.05;;;17.60;72.00;;;;;;6224276;23;20008;-74
2023/01/02 01:06:59;;;;;;;1.85;1.10;;;17.50;97.20;;;;;;6224152;23;20001;-74
2023/01/02 01:09:25;;;;;;;2.97;1.40;;;;;;;;;;6214438;23;20028;-74
2023/01/02 01:11:50;;;;;;;2.97;1.13;;;17.50;94.40;;;;;;6224307;23;20001;-74
2023/01/02 01:14:16;;;;;;;1.30;1.02;;;;;;;;;;6224088;23;20000;-74
2023/01/02 01:16:42;;;;;;;1.50;1.02;;;;;;;;;;6224301;23;20001;-73
2023/01/02 01:19:08;;;;;;;1.73;1.08;;;;;;;;;;6224051;23;20000;-74
2023/01/02 01:21:34;;;;;;;2.60;0.90;;;;;;;;;;6223956;23;20024;-74
2023/01/02 01:24:00;;;;;;;4.80;1.25;;;;;;;;;;6224053;23;20024;-74
2023/01/02 01:26:26;;;;;;;1.63;0.90;;;;;;;;;;6214097;23;19996;-73
2023/01/02 01:28:53;;;;;;;1.55;0.90;;;17.60;83.80;;;;;;6214395;23;20071;-74
2023/01/02 01:31:19;;;;;;;1.33;0.90;;;;;;;;;;6224221;23;19997;-74
2023/01/02 01:33:45;;;;;;;2.97;1.30;;;17.50;97.10;;;;;;6224152;23;20035;-74
2023/01/02 01:36:17;;;;;;;0.70;0.60;;;17.60;97.40;;;;;;6224040;23;19993;-74
2023/01/02 01:38:43;;;;;;;1.08;0.98;;;;;;;;;;6224109;23;19997;-74
2023/01/02 01:41:11;;;;;;;2.22;0.90;;;17.60;72.40;;;;;;6223952;23;20529;-74
2023/01/02 01:43:39;;;;;;;1.13;0.88;;;17.70;95.50;;;;;;6225987;23;20024;-74
2023/01/02 01:46:10;;;;;;;2.38;1.38;;;17.30;84.30;;;;;;6216157;23;20080;-74
2023/01/02 01:48:36;;;;;;;1.65;1.10;;;;;;;;;;6225938;23;19997;-74
2023/01/02 01:51:02;;;;;;;1.73;1.02;;;;;;;;;;6226024;23;20005;-74
2023/01/02 01:53:28;;;;;;;2.55;1.20;;;;;;;;;;6225796;23;20452;-74
2023/01/02 01:56:02;;;;;;;2.03;1.02;;;17.50;72.00;;;;;;6225685;23;20408;-74
2023/01/02 01:58:40;;;;;;;2.30;0.90;;;17.50;97.20;;;;;;6216110;23;20066;-74
2023/01/02 02:01:06;;;;;;;1.88;1.13;;;;;;;;;;6215605;23;20005;-74
2023/01/02 02:03:34;;;;;;;1.60;1.05;;;17.70;79.00;;;;;;6225670;23;20000;-74
2023/01/02 02:06:02;;;;;;;2.05;0.93;;;17.60;97.10;;;;;;6225776;23;20468;-75
2023/01/02 02:08:41;;;;;;;1.73;1.15;;;17.60;97.10;;;;;;6215640;23;19993;-74
2023/01/02 02:11:08;;;;;;;1.77;1.17;;;17.60;97.10;;;;;;6199166;23;20063;-74
2023/01/02 02:13:34;;;;;;;1.42;0.95;;;17.30;97.10;;;;;;6215282;23;20235;-74
2023/01/02 02:16:05;;;;;;;1.80;1.00;;;17.50;97.20;;;;;;6225773;23;20001;-73
2023/01/02 02:18:48;;;;;;;1.60;1.25;;;17.40;97.10;;;;;;6225488;23;20058;-74
2023/01/02 02:21:14;;;;;;;2.50;1.33;;;;;;;;;;6225473;23;20013;-74
2023/01/02 02:23:52;;;;;;;0.85;0.85;;;17.20;68.30;;;;;;6225431;23;20015;-74
2023/01/02 02:26:56;;;;;;;1.52;0.88;;;17.60;97.10;;;;;;6225670;23;20008;-74
2023/01/02 02:29:28;;;;;;;1.92;1.00;;;17.30;69.50;;;;;;6225367;23;19996;-74
2023/01/02 02:32:07;;;;;;;3.05;1.00;;;17.60;97.40;;;;;;6225532;23;20119;-74
2023/01/02 02:34:44;;;;;;;1.80;1.30;;;17.60;97.30;;;;;;6225712;23;20003;-74
2023/01/02 02:37:32;;;;;;;2.45;1.30;;;17.50;68.50;;;;;;6215772;23;20244;-74
2023/01/02 02:40:02;;;;;;;2.53;1.02;;;17.40;80.00;;;;;;6225294;23;20515;-74
2023/01/02 02:42:53;;;;;;;1.92;1.10;;;17.60;97.30;;;;;;6225338;23;20064;-74
2023/01/02 02:45:22;;;;;;;3.53;1.27;;;17.60;97.30;;;;;;6225463;23;20001;-75
2023/01/02 02:47:48;;;;;;;4.32;1.23;;;;;;;;;;6225309;23;19993;-75
2023/01/02 02:50:25;;;;;;;3.50;1.70;;;17.60;72.30;;;;;;6225375;23;20011;-75
2023/01/02 02:53:18;;;;;;;2.17;1.35;;;17.70;97.50;;;;;;6225034;23;20027;-75
2023/01/02 02:55:50;;;;;;;3.78;1.88;;;17.30;97.10;;;;;;6200744;23;20321;-75
2023/01/02 02:58:18;;;;;;;1.70;1.00;;;17.50;72.40;;;;;;6225305;23;19997;-75
2023/01/02 03:00:44;;;;;;;4.72;1.20;;;17.70;97.40;;;;;;6225011;23;20009;-75
2023/01/02 03:03:21;;;;;;;3.00;1.20;;;17.50;97.50;;;;;;6225321;23;19996;-75
2023/01/02 03:06:18;;;;;;;3.42;1.38;;;17.50;97.40;;;;;;6225460;23;20000;-75
2023/01/02 03:09:02;;;;;;;3.05;1.15;;;17.40;97.40;;;;;;6215304;23;20007;-75
2023/01/02 03:12:07;;;;;;;2.08;1.10;;;17.50;68.60;;;;;;6225124;23;19999;-75
2023/01/02 03:15:00;;;;;;;4.38;1.27;;;17.60;97.30;;;;;;6225085;23;20007;-75
2023/01/02 03:17:31;;;;;;;7.32;1.50;;;17.60;72.40;;;;;;6225082;23;19993;-75
2023/01/02 03:20:03;;;;;;;6.30;1.45;;;17.60;91.60;;;;;;6224991;23;20008;-75
2023/01/02 03:22:33;;;;;;;4.30;1.20;;;17.50;97.20;;;;;;6224875;23;20056;-75
2023/01/02 03:24:58;;;;;;;2.13;1.17;;;17.30;81.90;;;;;;6224985;23;20008;-75
2023/01/02 03:27:29;;;;;;;5.32;1.60;;;17.40;77.50;;;;;;6224844;23;20067;-75
2023/01/02 03:30:06;;;;;;;3.10;1.30;;;17.60;97.60;;;;;;6225006;23;19993;-75
2023/01/02 03:32:39;;;;;;;2.35;1.15;;;17.40;97.60;;;;;;6214838;23;20035;-75
2023/01/02 03:35:14;;;;;;;3.63;1.33;;;17.50;97.70;;;;;;6224871;23;20046;-75
2023/01/02 03:37:45;;;;;;;3.88;1.20;;;17.40;97.70;;;;;;6224875;23;20039;-75
2023/01/02 03:40:15;;;;;;;6.60;1.50;;;17.60;83.30;;;;;;6224835;23;20005;-75
2023/01/02 03:42:50;;;;;;;3.10;1.10;;;17.60;87.20;;;;;;6198170;23;19999;-75
2023/01/02 03:45:23;;;;;;;3.67;1.05;;;17.60;90.90;;;;;;6188166;23;20445;-75
2023/01/02 03:48:08;;;;;;;2.97;1.20;;;17.50;72.80;;;;;;6224736;23;20443;-75
2023/01/02 03:50:50;;;;;;;1.15;1.02;;;17.40;97.60;;;;;;6224800;23;20005;-75
2023/01/02 03:53:16;;;;;;;7.65;1.80;;;;;;;;;;6224715;23;20000;-75
2023/01/02 03:56:01;;;;;;;2.28;1.33;;;17.40;73.10;;;;;;6224533;23;20064;-75
2023/01/02 03:58:50;;;;;;;7.15;1.27;;;17.60;97.60;;;;;;6224806;23;19996;-75
2023/01/02 04:01:39;;;;;;;2.45;1.23;;;17.50;68.80;;;;;;6214830;23;20413;-75
2023/01/02 04:04:19;;;;;;;3.78;1.50;;;17.60;97.80;;;;;;6168309;23;20051;-75
2023/01/02 04:06:54;;;;;;;2.53;1.25;;;17.40;97.40;;;;;;6224577;23;20000;-75
2023/01/02 04:09:24;;;;;;;3.10;1.38;;;17.50;72.80;;;;;;6224576;23;19996;-75
2023/01/02 04:11:58;;;;;;;2.87;1.20;;;17.40;97.70;;;;;;6214683;23;20353;-75
2023/01/02 04:14:34;;;;;;;5.47;1.40;;;17.50;68.70;;;;;;6224639;23;20011;-75
2023/01/02 04:17:03;;;;;;;4.18;1.45;;;17.50;73.20;;;;;;6224542;23;19993;-74
2023/01/02 04:19:45;;;;;;;3.17;1.20;;;17.60;97.40;;;;;;6224370;23;19997;-74
2023/01/02 04:22:19;;;;;;;2.53;1.23;;;17.30;76.60;;;;;;6224310;23;20008;-74
2023/01/02 04:25:09;;;;;;;2.25;1.15;;;17.30;97.80;;;;;;6224389;23;19996;-74
2023/01/02 04:27:40;;;;;;;2.17;1.30;;;17.30;97.40;;;;;;6213739;23;20387;-74
2023/01/02 04:30:06;;;;;;;1.77;1.00;;;17.60;89.40;;;;;;6224464;23;20020;-74
2023/01/02 04:32:32;;;;;;;4.78;1.33;;;;;;;;;;6224519;23;19997;-73
2023/01/02 04:34:59;;;;;;;2.70;1.10;;;17.50;97.70;;;;;;6214750;23;19997;-75
2023/01/02 04:37:37;;;;;;;2.45;1.20;;;17.50;97.70;;;;;;6224458;23;20439;-75
2023/01/02 04:40:08;;;;;;;4.78;1.50;;;17.50;90.20;;;;;;6224166;23;20000;-75
2023/01/02 04:42:34;;;;;;;3.55;1.40;;;;;;;;;;6214237;23;20471;-75
2023/01/02 04:45:00;;;;;;;2.22;1.10;;;;;;;;;;6224276;23;19996;-75
2023/01/02 04:47:26;;;;;;;1.77;1.08;;;;;;;;;;6224319;23;20047;-75
2023/01/02 04:49:52;;;;;;;2.25;1.02;;;;;;;;;;6224274;23;20044;-75
2023/01/02 04:52:18;;;;;;;2.38;1.00;;;;;;;;;;6224299;23;20000;-74
2023/01/02 04:54:44;;;;;;;3.10;0.98;;;;;;;;;;6214524;23;20004;-73
2023/01/02 04:57:10;;;;;;;3.20;1.10;;;;;;;;;;6224210;23;20131;-74
2023/01/02 04:59:36;;;;;;;2.35;1.02;;;;;;;;;;6224130;23;20013;-73
2023/01/02 05:08:46;;;;;;;2.55;1.30;;;17.50;97.80;;;;;;6254855;23;20075;-70
2023/01/02 05:11:14;;;;;;;6.40;0.93;;;17.60;97.60;;;;;;6245237;23;20008;-70
2023/01/02 05:13:40;;;;;;;1.17;0.85;;;17.50;98.00;;;;;;6254676;23;20376;-71
2023/01/02 05:16:07;;;;;;;6.15;1.35;;;17.80;98.00;;;;;;6254573;23;20066;-71
2023/01/02 05:18:33;;;;;;;4.55;1.20;;;;;;;;;;6256696;23;19996;-71
2023/01/02 05:21:03;;;;;;;1.35;0.80;;;17.60;74.00;;;;;;6256589;23;20007;-71
2023/01/02 05:23:48;;;;;;;2.47;1.00;;;17.60;94.50;;;;;;6256663;23;20018;-71
2023/01/02 05:26:15;;;;;;;1.60;0.80;;;17.50;74.60;;;;;;6246748;23;20000;-71
2023/01/02 05:28:40;;;;;;;4.20;1.52;;;17.20;98.60;;;;;;6256536;23;20423;-71
2023/01/02 05:31:06;;;;;;;3.03;0.98;;;17.40;98.60;;;;;;6219511;23;20282;-71
2023/01/02 05:33:32;;;;;;;2.35;0.95;;;17.20;98.50;;;;;;6256565;23;20003;-71
2023/01/02 05:35:57;;;;;;;2.22;1.20;;;17.30;98.60;;;;;;6256590;23;20071;-72
2023/01/02 05:38:23;;;;;;;1.50;0.70;;;;;;;;;;6256639;23;19992;-71
2023/01/02 05:40:49;;;;;;;1.67;0.70;;;;;;;;;;6256308;23;20012;-71
2023/01/02 05:43:15;;;;;;;1.67;0.90;;;;;;;;;;6256382;23;20027;-71
2023/01/02 05:45:41;;;;;;;1.60;0.80;;;;;;;;;;6256395;23;19996;-71
2023/01/02 05:48:07;;;;;;;1.30;1.00;;;;;;;;;;6256335;23;19996;-71
2023/01/02 05:50:33;;;;;;;1.48;1.00;;;;;;;;;;6256311;23;20000;-71
2023/01/02 05:52:59;;;;;;;1.52;0.57;;;;;;;;;;6256354;23;20023;-72
2023/01/02 05:55:25;;;;;;;2.30;1.10;;;;;;;;;;6256432;23;20037;-79
2023/01/02 05:57:54;;;;;;;3.35;0.98;;;17.40;75.70;;;;;;6256336;23;19992;-79
2023/01/02 06:00:20;;;;;;;0.80;0.60;;;17.50;99.10;;;;;;6256235;23;20008;-79
2023/01/02 06:02:46;;;;;;;1.83;0.70;;;;;;;;;;6256036;23;20012;-79
2023/01/02 06:05:12;;;;;;;1.27;0.75;;;;;;;;;;6246008;23;20032;-79
2023/01/02 06:07:37;;;;;;;0.63;0.50;;;;;;;;;;6256183;23;20050;-79
2023/01/02 06:10:04;;;;;;;1.42;0.95;;;17.50;96.80;;;;;;6246265;23;20004;-79
2023/01/02 06:12:29;;;;;;;1.20;0.80;;;;;;;;;;6256200;23;19992;-78
2023/01/02 06:14:55;;;;;;;0.85;0.47;;;;;;;;;;6256242;23;20335;-79
2023/01/02 06:17:21;;;;;;;0.98;0.70;;;;;;;;;;6246329;23;20000;-79
2023/01/02 06:19:47;;;;;;;0.55;0.47;;;;;;;;;;6255815;23;20450;-79
2023/01/02 06:22:13;;;;;;;0.68;0.50;;;;;;;;;;6256257;23;20003;-79
2023/01/02 06:24:39;;;;;;;2.05;0.70;;;;;;;;;;6256096;23;19996;-79
2023/01/02 06:27:05;;;;;;;1.70;0.68;;;;;;;;;;6256070;23;20323;-79
2023/01/02 06:29:31;;;;;;;1.00;0.73;;;;;;;;;;6255953;23;20054;-79
2023/01/02 06:31:57;;;;;;;0.60;0.30;;;;;;;;;;6256087;23;19996;-79
2023/01/02 06:34:23;;;;;;;0.70;0.40;;;;;;;;;;6255908;23;20493;-79
2023/01/02 06:36:49;;;;;;;1.27;0.43;;;;;;;;;;6245635;23;20000;-80
2023/01/02 06:39:15;;;;;;;0.80;0.45;;;;;;;;;;6255868;23;20071;-79
2023/01/02 06:41:41;;;;;;;0.55;0.40;;;;;;;;;;6245889;23;20004;-79
2023/01/02 06:44:11;;;;;;;1.40;0.50;;;17.50;74.60;;;;;;6246525;23;20459;-77
2023/01/02 06:46:37;;;;;;;1.55;0.50;;;;;;;;;;6253436;23;19992;-77
2023/01/02 06:49:03;;;;;;;1.80;0.45;;;17.40;98.50;;;;;;6246054;23;20000;-79
2023/01/02 06:51:29;;;;;;;0.47;0.32;;;17.50;98.60;;;;;;6245924;23;20415;-79
2023/01/02 06:53:55;;;;;;;0.80;0.40;;;;;;;;;;6245812;23;20003;-78
2023/01/02 06:56:22;;;;;;;0.60;0.30;;;17.30;98.30;;;;;;6245975;23;20011;-78
2023/01/02 06:58:48;;;;;;;0.30;0.30;;;;;;;;;;6245947;23;20003;-77
2023/01/02 07:01:17;;;;;;;0.85;0.30;;;17.50;74.70;;;;;;6245703;23;20385;-77
2023/01/02 07:03:43;;;;;;;0.70;0.40;;;17.50;73.20;;;;;;6245475;23;20015;-78
2023/01/02 07:06:12;;;;;;;0.63;0.30;;;17.50;74.50;;;;;;6245782;23;20071;-81
2023/01/02 07:08:40;;;;;;;0.45;0.43;;;;;;;;;;6245928;23;20350;-77
2023/01/02 07:11:09;;;;;;;0.40;0.20;;;17.40;98.20;;;;;;6245887;23;20315;-78
2023/01/02 07:13:35;;;;;;;0.80;0.20;;;;;;;;;;6245859;23;20000;-77
2023/01/02 07:16:03;;;;;;;0.38;0.28;;;17.40;73.90;;;;;;6218776;23;20381;-84
2023/01/02 07:18:29;;;;;;;0.70;0.45;;;;;;;;;;6256996;23;19992;-87
2023/01/02 07:20:55;;;;;;;0.40;0.30;;;;;;;;;;6256908;23;20014;-86
2023/01/02 07:23:22;;;;;;;0.45;0.20;;;;;;;;;;6257161;23;19996;-86
2023/01/02 07:25:55;;;;;;;0.30;0.30;;;17.40;93.80;;;;;;6247067;23;20000;-84
2023/01/02 07:28:21;;;;;;;0.50;0.25;;;;;;;;;;6256781;23;19999;-83
2023/01/02 07:30:47;;;;;;;0.32;0.20;;;;;;;;;;6256325;23;20083;-83
2023/01/02 07:33:13;;;;;;;0.70;0.20;;;17.50;98.00;;;;;;6256539;23;20002;-83
2023/01/02 07:35:38;;;;;;;0.47;0.20;;;17.30;97.90;;;;;;6256426;23;20002;-83
2023/01/02 07:38:04;;;;;;;0.28;0.20;;;;;;;;;;6256216;23;19998;-81
2023/01/02 07:40:31;;;;;;;0.47;0.30;;;17.30;73.20;;;;;;6255168;23;20011;-82
2023/01/02 07:42:57;;;;;;;0.90;0.13;;;;;;;;;;6255640;23;20431;-82
2023/01/02 07:45:23;;;;;;;0.52;0.10;;;;;;;;;;6255461;23;20046;-70
2023/01/02 07:47:49;;;;;;;0.20;0.20;;;;;;;;;;6255302;23;20071;-71
2023/01/02 07:50:15;;;;;;;0.30;0.30;;;;;;;;;;6244799;23;20371;-70
2023/01/02 07:52:42;;;;;;;0.20;0.20;;;17.40;71.30;;;;;;6255172;23;20000;-70
2023/01/02 07:55:08;;;;;;;0.98;0.30;;;;;;;;;;6217984;23;20387;-70
2023/01/02 07:57:34;;;;;;;0.77;0.30;;;;;;;;;;6255098;23;20101;-70
2023/01/02 08:00:00;;;;;;;0.85;0.47;;;;;;;;;;6254901;23;20087;-73
2023/01/02 08:02:26;;;;;;;1.13;0.30;;;;;;;;;;6254861;23;20015;-77
2023/01/02 08:04:52;;;;;;;1.02;0.40;;;;;;;;;;6260257;23;20312;-75
2023/01/02 08:07:18;;;;;;;0.65;0.40;;;;;;;;;;6257597;23;19996;-75
2023/01/02 08:09:44;;;;;;;1.08;0.30;;;;;;;;;;6255718;23;20366;-73
2023/01/02 08:12:10;;;;;;;2.30;0.55;;;;;;;;;;6255097;23;20000;-72
2023/01/02 08:14:36;;;;;;;0.98;0.30;;;;;;;;;;6255168;23;20118;-73
2023/01/02 08:17:02;;;;;;;3.45;0.50;;;;;;;;;;6255072;23;20339;-73
2023/01/02 08:19:28;;;;;;;0.90;0.50;;;17.40;98.30;;;;;;6254993;23;20019;-75
2023/01/02 08:21:53;;;;;;;1.08;0.50;;;17.20;98.20;;;;;;6255139;23;19996;-72
2023/01/02 08:24:19;;;;;;;1.20;0.40;;;;;;;;;;6255192;23;20003;-70
2023/01/02 08:26:45;;;;;;;0.52;0.40;;;;;;;;;;6245126;23;20007;-70
2023/01/02 08:29:11;;;;;;;0.32;0.20;;;;;;;;;;6254893;23;20011;-70
2023/01/02 08:31:37;;;;;;;0.40;0.32;;;;;;;;;;6217981;23;20431;-70
2023/01/02 08:34:03;;;;;;;0.75;0.30;;;;;;;;;;6254991;23;20075;-70
2023/01/02 08:36:29;;;;;;;0.35;0.20;;;;;;;;;;6254886;23;20039;-70
2023/01/02 08:38:55;;;;;;;1.45;0.43;;;;;;;;;;6254926;23;19992;-70
2023/01/02 08:41:36;;;;;;;0.70;0.35;;;17.10;69.10;;;;;;6254794;23;20008;-69
2023/01/02 08:44:03;;;;;;;2.33;0.30;;;;;;;;;;6255063;23;19997;-69
2023/01/02 08:46:31;;;;;;;1.00;0.38;;;17.30;74.20;;;;;;6254952;23;20007;-69
2023/01/02 08:48:57;;;;;;;1.50;0.45;;;;;;;;;;6244982;23;20303;-69
2023/01/02 08:51:23;;;;;;;0.68;0.30;;;;;;;;;;6254976;23;20000;-69
2023/01/02 08:53:49;;;;;;;1.65;0.40;;;;;;;;;;6246693;23;20431;-69
2023/01/02 08:56:26;;;;;;;1.92;0.38;;;17.20;98.10;;;;;;6246837;23;20007;-69
2023/01/02 08:58:55;;;;;;;1.73;0.40;;;17.30;74.20;;;;;;6247228;23;20000;-75
2023/01/02 09:01:25;;;;;;;0.95;0.30;;;17.20;73.20;;;;;;6247059;23;20281;-74
2023/01/02 09:03:51;;;;;;;;;;;17.30;74.70;;;;;;6247674;23;20062;-75
2023/01/02 09:06:18;;;;;;;2.03;0.50;;;;;;;;;;6247389;23;19899;-74
2023/01/02 09:08:44;;;;;;;0.60;0.40;;;;;;;;;;6247012;23;20005;-74
2023/01/02 09:11:16;;;;;;;1.23;0.35;;;16.90;76.80;;;;;;6257418;23;20019;-74
2023/01/02 09:13:42;;;;;;;4.03;0.55;;;17.30;70.50;;;;;;6253303;23;20000;-73
2023/01/02 09:16:09;;;;;;;2.20;0.47;;;17.30;70.90;;;;;;6256978;23;20079;-74
2023/01/02 09:18:35;;;;;;;0.82;0.20;;;;;;;;;;6256950;23;20003;-73
2023/01/02 09:21:01;;;;;;;0.95;0.30;;;;;;;;;;6261321;23;20038;-74
2023/01/02 09:23:27;;;;;;;1.75;0.30;;;;;;;;;;6257831;23;20023;-71
2023/01/02 09:25:57;;;;;;;0.73;0.40;;;17.30;73.50;;;;;;6256774;23;20069;-75
2023/01/02 09:28:23;;;;;;;1.55;0.32;;;;;;;;;;6256796;23;19996;-74
2023/01/02 09:30:49;;;;;;;1.05;0.30;;;;;;;;;;6256580;23;20006;-74
2023/01/02 09:33:15;;;;;;;2.58;0.30;;;;;;;;;;6219528;23;20439;-75
2023/01/02 09:35:41;;;;;;;1.33;0.30;;;;;;;;;;6246377;23;20008;-74
2023/01/02 09:38:07;;;;;;;1.75;0.50;;;17.00;97.90;;;;;;6246803;23;20004;-74
2023/01/02 09:40:35;;;;;;;3.22;0.45;;;17.20;73.30;;;;;;6256350;23;20373;-74
2023/01/02 09:43:02;;;;;;;2.22;0.40;;;17.20;71.90;;;;;;6246739;23;19996;-78
2023/01/02 09:45:28;;;;;;;0.82;0.25;;;17.30;73.70;;;;;;6257335;23;19996;-77
2023/01/02 09:47:57;;;;;;;2.53;0.40;;;17.20;72.70;;;;;;6229585;23;20050;-77
2023/01/02 09:50:29;;;;;;;2.42;0.45;;;17.20;73.80;;;;;;6256516;23;20022;-78
2023/01/02 09:52:59;;;;;;;1.10;0.40;;;17.20;68.80;;;;;;6256510;23;20071;-78
2023/01/02 09:55:42;;;;;;;0.82;0.50;;;17.10;68.40;;;;;;6229627;23;20395;-78
2023/01/02 09:58:37;;;;;;;0.50;0.30;;;17.20;73.40;;;;;;6256419;23;20019;-78
2023/01/02 10:01:04;;;;;;;1.80;0.45;;;17.30;98.00;;;;;;6234044;23;20166;-78
2023/01/02 10:03:30;;;;;;;0.77;0.50;;;;;;;;;;6255848;23;20019;-76
2023/01/02 10:06:15;;;;;;;1.60;0.32;;;19.30;75.10;;;;;;6245942;23;20004;-78
2023/01/02 10:09:13;;;;;;;1.77;0.50;;;17.30;78.70;;;;;;6246368;23;19996;-74
2023/01/02 10:11:46;;;;;;;2.25;0.70;;;17.20;73.80;;;;;;6141029;23;20004;-77
2023/01/02 10:14:30;;;;;;;4.25;0.70;;;17.10;73.70;;;;;;6219435;23;19999;-70
2023/01/02 10:16:59;;;;;;;2.53;0.63;;;17.10;73.90;;;;;;6245884;23;20000;-69
2023/01/02 10:19:47;;;;;;;2.70;0.77;;;17.10;68.50;;;;;;6246353;23;19993;-70
2023/01/02 10:22:21;;;;;;;1.35;0.50;;;17.20;74.00;;;;;;6245874;23;20031;-70
2023/01/02 10:24:58;;;;;;;0.93;0.65;;;17.30;97.80;;;;;;6246227;23;20067;-70
2023/01/02 10:27:37;;;;;;;4.07;0.80;;;17.20;97.90;;;;;;6246274;23;20319;-70
2023/01/02 10:30:29;;;;;;;2.25;0.60;;;17.10;68.60;;;;;;6246280;23;19996;-74
2023/01/02 10:33:04;;;;;;;4.55;0.50;;;17.10;69.00;;;;;;6246007;23;20035;-70
2023/01/02 10:35:39;;;;;;;3.78;1.45;;;17.10;68.40;;;;;;6246189;23;20024;-72
2023/01/02 10:38:05;;;;;;;16.13;5.18;;;;;;;;;;6246170;23;20307;-71
2023/01/02 10:40:32;;;;;;;21.52;7.50;;;17.20;73.00;;;;;;6245921;23;20015;-71
2023/01/02 10:42:58;;;;;;;26.83;8.40;;;;;;;;;;6246054;23;19996;-70
2023/01/02 10:45:24;;;;;;;31.27;9.55;;;17.20;97.80;;;;;;6246106;23;20004;-71
2023/01/02 10:47:51;;;;;;;32.88;10.38;;;;;;;;;;6245592;23;20495;-70
2023/01/02 10:50:21;;;;;;;28.05;9.77;;;17.10;74.20;;;;;;6219197;23;20005;-69
2023/01/02 10:53:04;;;;;;;32.67;9.68;;;17.10;69.30;;;;;;6245619;23;20079;-71
2023/01/02 10:55:39;;;;;;;32.28;9.65;;;17.10;74.00;;;;;;6246115;23;20008;-69
2023/01/02 10:58:25;;;;;;;29.67;9.30;;;17.20;74.50;;;;;;6245719;23;20059;-70
2023/01/02 11:01:04;;;;;;;30.42;8.65;;;17.10;74.80;;;;;;6245648;23;20358;-70
2023/01/02 11:03:30;;;;;;;23.35;7.43;;;17.30;98.50;;;;;;6245285;23;20324;-70
2023/01/02 11:05:57;;;;;;;26.33;8.20;;;17.20;74.60;;;;;;6218707;23;20391;-70
2023/01/02 11:08:35;;;;;;;24.23;7.38;;;17.20;74.30;;;;;;6246010;23;19992;-71
2023/01/02 11:11:01;;;;;;;24.08;7.25;;;;;;;;;;6246053;23;20099;-74
2023/01/02 11:13:43;;;;;;;26.25;6.72;;;17.20;74.60;;;;;;6245776;23;19997;-74
2023/01/02 11:16:12;;;;;;;18.25;5.80;;;17.20;74.80;;;;;;6245561;23;20370;-74
2023/01/02 11:18:39;;;;;;;21.63;5.97;;;17.40;98.40;;;;;;6245918;23;19992;-76
2023/01/02 11:21:06;;;;;;;15.10;4.75;;;17.30;74.70;;;;;;6245835;23;20008;-78
2023/01/02 11:23:43;;;;;;;17.40;5.55;;;17.30;69.90;;;;;;6245758;23;20003;-77
2023/01/02 11:26:22;;;;;;;16.40;5.25;;;17.30;74.90;;;;;;6245957;23;20071;-76
2023/01/02 11:28:50;;;;;;;18.20;5.47;;;17.20;74.90;;;;;;6245359;23;20000;-79
2023/01/02 11:31:17;;;;;;;14.75;4.28;;;;;;;;;;6245667;23;20000;-75
2023/01/02 11:33:44;;;;;;;12.15;4.40;;;17.20;74.80;;;;;;6245735;23;19996;-74
2023/01/02 11:36:11;;;;;;;15.52;4.38;;;;;;;;;;6245150;23;19992;-78
2023/01/02 11:38:47;;;;;;;14.68;4.05;;;17.30;69.60;;;;;;6245567;23;20070;-77
2023/01/02 11:43:47;;;;;;;15.98;4.13;;;17.30;69.60;;;;;;6245559;23;20316;-75
2023/01/02 11:44:27;;;;;;;10.25;3.00;;;17.30;74.80;;;;;;6245294;23;20043;-69
2023/01/02 11:46:54;;;;;;;9.57;3.47;;;17.20;74.50;;;;;;6245285;23;20084;-69
2023/01/02 11:49:25;;;;;;;10.70;3.33;;;17.20;74.70;;;;;;6245445;23;20008;-69
2023/01/02 11:51:58;;;;;;;8.70;3.35;;;17.10;69.20;;;;;;6245517;23;20008;-69
2023/01/02 11:54:53;;;;;;;11.10;3.33;;;16.90;71.80;;;;;;6245094;23;20427;-69
2023/01/02 11:57:38;;;;;;;7.20;2.75;;;17.20;69.40;;;;;;6245367;23;20000;-69
2023/01/02 12:00:14;;;;;;;6.25;2.67;;;17.20;74.00;;;;;;6245287;23;20374;-69
2023/01/02 12:02:44;;;;;;;8.13;2.95;;;17.30;74.10;;;;;;6244844;23;20008;-75
2023/01/02 12:05:36;;;;;;;8.93;2.67;;;17.30;69.20;;;;;;6245324;23;20002;-81
2023/01/02 12:08:20;;;;;;;6.50;2.53;;;17.30;69.60;;;;;;6245071;23;20000;-76
2023/01/02 12:11:14;;;;;;;5.80;2.03;;;17.30;69.20;;;;;;6245328;23;20356;-78
2023/01/02 12:14:06;;;;;;;5.20;2.20;;;17.20;69.20;;;;;;6245408;23;20000;-78
2023/01/02 12:16:38;;;;;;;5.60;2.03;;;17.30;98.40;;;;;;6245057;23;20453;-78
2023/01/02 12:19:16;;;;;;;3.83;1.80;;;17.30;98.40;;;;;;6245299;23;20063;-78
2023/01/02 12:22:14;;;;;;;7.03;1.90;;;17.20;69.10;;;;;;6245218;23;20028;-70
2023/01/02 12:25:00;;;;;;;6.65;1.92;;;17.30;98.40;;;;;;6245037;23;20050;-70
2023/01/02 12:27:41;;;;;;;5.53;1.88;;;18.10;69.60;;;;;;6245028;23;20001;-70
2023/01/02 12:30:13;;;;;;;;;;;17.30;75.40;;;;;;6245616;23;20004;-70
2023/01/02 12:32:59;;;;;;;4.63;1.40;;;17.20;69.20;;;;;;6244929;23;19915;-70
2023/01/02 12:35:43;;;;;;;5.90;1.80;;;17.20;69.20;;;;;;6254974;23;19999;-70
2023/01/02 12:38:13;;;;;;;3.65;1.70;;;17.30;74.40;;;;;;6245004;23;20047;-70
2023/01/02 12:40:48;;;;;;;3.23;1.67;;;17.20;69.00;;;;;;6245094;23;20043;-70
2023/01/02 12:43:51;;;;;;;4.78;1.70;;;17.20;69.10;;;;;;6244993;23;20004;-70
2023/01/02 12:46:17;;;;;;;4.47;1.13;;;;;;;;;;6244667;23;20011;-70
2023/01/02 12:49:15;;;;;;;4.90;1.33;;;17.20;68.70;;;;;;6244901;23;20000;-70
2023/01/02 12:52:03;;;;;;;4.30;1.70;;;17.10;68.60;;;;;;6244966;23;20316;-70
2023/01/02 12:54:54;;;;;;;2.88;1.20;;;17.20;73.90;;;;;;6244903;23;20010;-70
2023/01/02 12:57:23;;;;;;;3.80;1.25;;;17.20;68.70;;;;;;6244747;23;20319;-77
2023/01/02 13:00:19;;;;;;;4.70;1.38;;;17.20;68.60;;;;;;6244482;23;20019;-70
2023/01/02 13:03:06;;;;;;;3.15;1.25;;;17.10;74.20;;;;;;6244291;23;20066;-70
2023/01/02 13:05:47;;;;;;;3.05;1.55;;;17.20;68.60;;;;;;6244439;23;20008;-70
2023/01/02 13:08:24;;;;;;;3.63;1.42;;;16.30;68.00;;;;;;6244519;23;20458;-70
2023/01/02 13:10:53;;;;;;;3.83;1.10;;;17.20;73.40;;;;;;6244810;23;20063;-70
2023/01/02 13:13:24;;;;;;;2.38;1.10;;;17.10;74.00;;;;;;6244346;23;20427;-70
2023/01/02 13:15:56;;;;;;;3.50;1.20;;;17.20;73.90;;;;;;6244685;23;19993;-75
2023/01/02 13:18:30;;;;;;;1.80;0.80;;;17.20;73.80;;;;;;6244511;23;20435;-70
2023/01/02 13:21:03;;;;;;;2.78;1.00;;;17.20;68.40;;;;;;6244864;23;20023;-70
2023/01/02 13:23:45;;;;;;;2.05;1.10;;;17.20;68.70;;;;;;6244318;23;20003;-70
2023/01/02 13:26:29;;;;;;;3.25;1.10;;;17.10;73.90;;;;;;6241678;23;20417;-70
2023/01/02 13:29:01;;;;;;;2.65;1.00;;;17.10;74.10;;;;;;6244687;23;20074;-70
2023/01/02 13:31:31;;;;;;;3.85;0.90;;;17.10;71.50;;;;;;6244669;23;20004;-70
2023/01/02 13:34:13;;;;;;;2.80;1.13;;;17.10;73.60;;;;;;6244521;23;20003;-71
2023/01/02 13:36:45;;;;;;;1.45;0.90;;;17.10;74.20;;;;;;6244197;23;20004;-71
2023/01/02 13:39:34;;;;;;;2.20;0.73;;;17.20;98.20;;;;;;6256038;23;20003;-70
2023/01/02 13:45:07;;;;;;;2.38;0.85;;;17.00;73.80;;;;;;6256328;23;20091;-70
2023/01/02 13:47:36;;;;;;;1.88;1.02;;;17.00;73.70;;;;;;6256238;23;19999;-70
2023/01/02 13:50:11;;;;;;;3.35;1.05;;;17.10;68.80;;;;;;6256252;23;20020;-70
2023/01/02 13:52:39;;;;;;;1.65;0.80;;;17.10;73.80;;;;;;6256502;23;20000;-75
2023/01/02 13:55:10;;;;;;;2.05;1.05;;;17.10;68.40;;;;;;6219578;23;20415;-76
2023/01/02 13:57:36;;;;;;;2.15;1.10;;;;;;;;;;6256464;23;20000;-74